Time;durP1;ratioP1;P1;durP2;ratioP2;P2;SDS_P1;SDS_P2;PMS_P1;PMS_P2;Temp;Humidity;BMP_temperature;BMP_pressure;BME280_temperature;BME280_humidity;BME280_pressure;Samples;Min_cycle;Max_cycle;Signal;HPM_P1;HPM_P2
2021/12/23 00:01:32;;;;;;;12.32;9.77;;;5.10;99.90;;;;;;5008274;28;20053;-56
2021/12/23 00:03:59;;;;;;;12.88;9.77;;;5.10;99.90;;;;;;5004777;28;20067;-56
2021/12/23 00:06:26;;;;;;;13.45;11.50;;;5.10;99.90;;;;;;5009069;28;20361;-55
2021/12/23 00:08:52;;;;;;;12.63;11.05;;;5.10;99.90;;;;;;5006966;28;20136;-56
2021/12/23 00:11:19;;;;;;;13.00;11.43;;;5.10;99.90;;;;;;5006941;28;20088;-56
2021/12/23 00:13:59;;;;;;;14.52;12.32;;;5.10;99.90;;;;;;5005641;28;20050;-57
2021/12/23 00:19:47;;;;;;;13.45;10.40;;;5.20;99.90;;;;;;5019903;28;20518;-57
2021/12/23 00:24:48;;;;;;;13.70;10.95;;;5.20;99.90;;;;;;5010801;28;20100;-56
2021/12/23 00:27:15;;;;;;;13.40;10.60;;;5.20;99.90;;;;;;5013221;28;20115;-56
2021/12/23 00:29:42;;;;;;;13.43;11.00;;;5.20;99.90;;;;;;5009746;28;20081;-56
2021/12/23 00:32:09;;;;;;;12.60;10.30;;;5.20;99.90;;;;;;5005191;28;20439;-57
2021/12/23 00:34:36;;;;;;;13.18;10.50;;;5.20;99.90;;;;;;5015220;28;20072;-55
2021/12/23 00:37:06;;;;;;;16.15;11.98;;;5.20;99.90;;;;;;5010134;28;20073;-55
2021/12/23 00:39:33;;;;;;;12.80;10.30;;;5.20;99.90;;;;;;5010208;28;20092;-57
2021/12/23 00:42:06;;;;;;;13.27;11.18;;;5.20;99.90;;;;;;5007244;28;20180;-55
2021/12/23 00:44:34;;;;;;;13.20;10.43;;;5.20;99.90;;;;;;5014767;28;20049;-55
2021/12/23 00:47:02;;;;;;;14.40;11.65;;;5.30;99.90;;;;;;5013962;28;20229;-57
2021/12/23 00:49:28;;;;;;;14.38;11.10;;;5.30;99.90;;;;;;5010819;28;20073;-54
2021/12/23 00:51:57;;;;;;;13.82;11.23;;;5.30;99.90;;;;;;5008127;28;20077;-56
2021/12/23 00:54:23;;;;;;;13.82;11.13;;;5.30;99.90;;;;;;5015655;28;20073;-54
2021/12/23 00:56:51;;;;;;;12.27;10.57;;;5.30;99.90;;;;;;5010557;28;20132;-52
2021/12/23 00:59:18;;;;;;;11.98;10.65;;;5.30;99.90;;;;;;5010654;28;20157;-56
2021/12/23 01:01:46;;;;;;;11.93;10.05;;;5.40;99.90;;;;;;5010606;28;20450;-56
2021/12/23 01:04:14;;;;;;;10.45;9.35;;;5.40;99.90;;;;;;5009358;28;20052;-54
2021/12/23 01:06:41;;;;;;;12.63;10.32;;;5.40;99.90;;;;;;5010587;28;20409;-56
2021/12/23 01:09:08;;;;;;;12.52;9.75;;;5.40;99.90;;;;;;5014386;28;20118;-56
2021/12/23 01:11:35;;;;;;;11.65;10.15;;;5.40;99.90;;;;;;5010390;28;20085;-56
2021/12/23 01:19:24;;;;;;;10.27;9.00;;;5.50;99.90;;;;;;5009629;28;20046;-56
2021/12/23 01:21:51;;;;;;;12.45;8.77;;;5.50;99.90;;;;;;5009626;28;20489;-57
2021/12/23 01:24:17;;;;;;;9.43;8.38;;;5.50;99.90;;;;;;5011736;28;20144;-55
2021/12/23 01:26:44;;;;;;;11.88;8.82;;;5.60;99.90;;;;;;5010742;28;20164;-54
2021/12/23 01:29:11;;;;;;;10.93;9.07;;;5.60;99.90;;;;;;5010534;28;20100;-56
2021/12/23 01:31:38;;;;;;;10.98;9.05;;;5.60;99.90;;;;;;5007726;28;20884;-56
2021/12/23 01:34:06;;;;;;;12.48;9.18;;;5.60;99.90;;;;;;5007540;28;20115;-57
2021/12/23 01:36:32;;;;;;;11.88;9.35;;;5.60;99.90;;;;;;5011441;28;20548;-56
2021/12/23 01:38:59;;;;;;;13.13;9.90;;;5.60;99.90;;;;;;5009184;28;20168;-57
2021/12/23 01:41:26;;;;;;;12.45;9.60;;;5.60;99.90;;;;;;5012437;28;20140;-57
2021/12/23 01:43:53;;;;;;;13.75;10.15;;;5.60;99.90;;;;;;5007573;28;20161;-56
2021/12/23 01:46:22;;;;;;;11.55;9.48;;;5.70;99.90;;;;;;5008554;28;20076;-53
2021/12/23 01:48:49;;;;;;;11.45;9.55;;;5.70;99.90;;;;;;5010459;28;20531;-55
2021/12/23 01:51:16;;;;;;;12.45;10.05;;;5.70;99.90;;;;;;5008866;28;20158;-56
2021/12/23 01:53:42;;;;;;;9.40;8.45;;;5.70;99.90;;;;;;5010975;28;20076;-55
2021/12/23 01:56:09;;;;;;;11.48;8.93;;;5.70;99.90;;;;;;5011141;28;20089;-56
2021/12/23 01:58:37;;;;;;;11.23;9.65;;;5.70;99.90;;;;;;5008850;28;20132;-54
2021/12/23 02:01:04;;;;;;;10.65;9.07;;;5.70;99.90;;;;;;5010329;28;20136;-56
2021/12/23 02:03:32;;;;;;;12.38;10.18;;;5.80;99.90;;;;;;5009982;28;20049;-55
2021/12/23 02:05:59;;;;;;;9.95;8.38;;;5.80;99.90;;;;;;5011799;28;20148;-56
2021/12/23 02:08:32;;;;;;;11.18;8.90;;;5.80;99.90;;;;;;5008962;28;20097;-55
2021/12/23 02:10:59;;;;;;;10.98;9.32;;;5.80;99.90;;;;;;5001363;28;20076;-56
2021/12/23 02:13:25;;;;;;;11.77;9.45;;;5.80;99.90;;;;;;5007655;28;20073;-56
2021/12/23 02:15:52;;;;;;;10.07;8.45;;;5.80;99.90;;;;;;5008941;28;20136;-56
2021/12/23 02:18:20;;;;;;;11.40;9.52;;;5.90;99.90;;;;;;5009065;28;20719;-56
2021/12/23 02:20:47;;;;;;;11.80;9.48;;;5.90;99.90;;;;;;5008401;28;20050;-55
2021/12/23 02:23:14;;;;;;;10.90;8.73;;;5.90;99.90;;;;;;5006423;28;20073;-56
2021/12/23 02:25:40;;;;;;;11.85;8.60;;;5.80;99.90;;;;;;5011200;28;20140;-55
2021/12/23 02:28:10;;;;;;;10.55;8.98;;;5.80;99.90;;;;;;5009289;28;20719;-56
2021/12/23 02:30:37;;;;;;;13.13;9.30;;;5.90;99.90;;;;;;5012534;28;20069;-56
2021/12/23 02:33:05;;;;;;;11.30;9.32;;;5.90;99.90;;;;;;5015937;28;20053;-56
2021/12/23 02:35:32;;;;;;;10.63;8.40;;;5.90;99.90;;;;;;5012346;28;20133;-57
2021/12/23 02:37:59;;;;;;;11.73;9.63;;;5.90;99.90;;;;;;5011004;28;20137;-55
2021/12/23 02:40:35;;;;;;;12.45;9.10;;;6.00;99.90;;;;;;5017355;28;20054;-56
2021/12/23 02:43:14;;;;;;;11.90;9.73;;;5.90;99.90;;;;;;5014326;28;20099;-55
2021/12/23 02:45:42;;;;;;;11.45;9.02;;;6.00;99.90;;;;;;5016189;28;20144;-56
2021/12/23 02:48:13;;;;;;;10.10;8.20;;;6.00;99.90;;;;;;5017084;28;20068;-56
2021/12/23 02:50:41;;;;;;;9.35;8.25;;;6.00;99.90;;;;;;5017393;28;20133;-56
2021/12/23 02:53:08;;;;;;;10.38;8.23;;;6.00;99.90;;;;;;5015369;28;20057;-55
2021/12/23 02:55:35;;;;;;;11.10;9.27;;;6.00;99.90;;;;;;5014455;28;20112;-57
2021/12/23 02:58:01;;;;;;;12.15;8.57;;;6.00;99.90;;;;;;5011380;28;20117;-56
2021/12/23 03:00:29;;;;;;;14.07;10.80;;;6.00;99.90;;;;;;5010932;28;20081;-55
2021/12/23 03:02:56;;;;;;;14.18;11.40;;;6.00;99.90;;;;;;5016887;28;20181;-56
2021/12/23 03:05:23;;;;;;;14.23;11.07;;;6.00;99.90;;;;;;5016641;28;20140;-57
2021/12/23 03:07:50;;;;;;;12.98;10.35;;;6.10;99.90;;;;;;5012255;28;20192;-56
2021/12/23 03:10:17;;;;;;;12.45;10.35;;;6.10;99.90;;;;;;5012351;28;20077;-56
2021/12/23 03:12:44;;;;;;;11.57;9.55;;;6.20;99.90;;;;;;5013790;28;20090;-55
2021/12/23 03:15:10;;;;;;;10.63;9.20;;;6.20;99.90;;;;;;5011083;28;20184;-55
2021/12/23 03:17:37;;;;;;;12.18;9.43;;;6.30;99.90;;;;;;5011977;28;20159;-54
2021/12/23 03:20:05;;;;;;;11.50;9.95;;;6.20;99.90;;;;;;5015636;28;20346;-54
2021/12/23 03:22:31;;;;;;;11.30;9.23;;;6.30;99.90;;;;;;5013553;28;20084;-54
2021/12/23 03:24:58;;;;;;;11.32;9.18;;;6.30;99.90;;;;;;5013474;28;20485;-54
2021/12/23 03:27:25;;;;;;;11.00;9.15;;;6.30;99.90;;;;;;5010268;28;20046;-52
2021/12/23 03:29:54;;;;;;;12.32;9.57;;;6.30;99.90;;;;;;5013405;28;20141;-53
2021/12/23 03:32:21;;;;;;;10.23;8.27;;;6.30;99.90;;;;;;5012719;28;20136;-55
2021/12/23 03:34:48;;;;;;;11.55;9.25;;;6.40;99.90;;;;;;5011961;28;20164;-52
2021/12/23 03:37:15;;;;;;;9.35;7.80;;;6.40;99.90;;;;;;5012989;28;20096;-55
2021/12/23 03:39:42;;;;;;;9.48;6.95;;;6.40;99.90;;;;;;5011757;28;20135;-51
2021/12/23 03:42:08;;;;;;;13.18;10.32;;;6.40;99.90;;;;;;5011750;28;20103;-53
2021/12/23 03:44:35;;;;;;;15.60;10.70;;;6.40;99.90;;;;;;5017462;28;20557;-54
2021/12/23 03:47:02;;;;;;;12.57;10.82;;;6.40;99.90;;;;;;5010667;28;20145;-54
2021/12/23 03:49:29;;;;;;;13.10;11.32;;;6.40;99.90;;;;;;5012037;28;20085;-53
2021/12/23 03:51:55;;;;;;;12.25;10.32;;;6.40;99.90;;;;;;5017623;28;20049;-53
2021/12/23 03:54:22;;;;;;;12.70;10.35;;;6.40;99.90;;;;;;5013516;28;20583;-54
2021/12/23 03:56:49;;;;;;;13.60;11.07;;;6.40;99.90;;;;;;5013286;28;20046;-56
2021/12/23 03:59:16;;;;;;;11.15;9.73;;;6.40;99.90;;;;;;5011565;28;20129;-55
2021/12/23 04:01:43;;;;;;;13.27;10.43;;;6.50;99.90;;;;;;5015158;28;20144;-56
2021/12/23 04:04:10;;;;;;;11.32;9.32;;;6.50;99.90;;;;;;5013776;28;20050;-56
2021/12/23 04:06:36;;;;;;;14.00;10.07;;;6.50;99.90;;;;;;5015466;28;20077;-56
2021/12/23 04:09:03;;;;;;;13.63;10.55;;;6.60;99.90;;;;;;5014115;28;20542;-55
2021/12/23 04:11:31;;;;;;;12.07;9.82;;;6.60;99.90;;;;;;5020412;28;20049;-56
2021/12/23 04:13:58;;;;;;;11.15;9.25;;;6.60;99.90;;;;;;5014451;28;20096;-55
2021/12/23 04:16:25;;;;;;;13.52;9.75;;;6.70;99.90;;;;;;5016932;28;20096;-57
2021/12/23 04:18:53;;;;;;;12.98;10.57;;;6.70;99.90;;;;;;5016658;28;20175;-55
2021/12/23 04:21:20;;;;;;;14.82;10.95;;;6.70;99.90;;;;;;5014005;28;20046;-55
2021/12/23 04:23:47;;;;;;;12.13;10.45;;;6.70;99.90;;;;;;5017586;28;20081;-58
2021/12/23 04:26:14;;;;;;;12.18;10.10;;;6.70;99.90;;;;;;5017317;28;20148;-53
2021/12/23 04:28:47;;;;;;;13.20;10.25;;;6.70;99.90;;;;;;5013860;28;20092;-55
2021/12/23 04:31:19;;;;;;;14.15;11.27;;;6.70;99.90;;;;;;5018178;28;20076;-56
2021/12/23 04:33:47;;;;;;;14.77;11.90;;;6.70;99.90;;;;;;5015356;28;20084;-54
2021/12/23 04:36:15;;;;;;;14.65;11.85;;;6.70;99.90;;;;;;5015162;28;20081;-54
2021/12/23 04:38:42;;;;;;;14.23;10.63;;;6.70;99.90;;;;;;5018233;28;20085;-55
2021/12/23 04:41:08;;;;;;;13.00;10.75;;;6.70;99.90;;;;;;5016929;28;20577;-55
2021/12/23 04:43:35;;;;;;;13.60;11.07;;;6.70;99.90;;;;;;5016771;28;20144;-55
2021/12/23 04:46:02;;;;;;;13.27;10.07;;;6.70;99.90;;;;;;5015094;28;20442;-55
2021/12/23 04:48:29;;;;;;;13.63;11.30;;;6.70;99.90;;;;;;5017298;28;20508;-55
2021/12/23 04:50:56;;;;;;;14.30;10.93;;;6.70;99.90;;;;;;5016694;28;20080;-55
2021/12/23 04:53:23;;;;;;;14.85;10.70;;;6.80;99.90;;;;;;5018936;28;20161;-56
2021/12/23 04:55:50;;;;;;;14.77;11.50;;;6.80;99.90;;;;;;5016208;28;20173;-55
2021/12/23 04:58:17;;;;;;;14.95;11.20;;;6.80;99.90;;;;;;5015221;28;20077;-55
2021/12/23 05:00:47;;;;;;;14.13;11.00;;;6.70;99.90;;;;;;5014148;28;20077;-56
2021/12/23 05:03:16;;;;;;;17.02;11.48;;;6.80;99.90;;;;;;5012689;28;20057;-55
2021/12/23 05:05:43;;;;;;;17.27;12.15;;;6.80;99.90;;;;;;5014751;28;20077;-54
2021/12/23 05:08:10;;;;;;;14.70;11.88;;;6.80;99.90;;;;;;5016150;28;20077;-53
2021/12/23 05:10:37;;;;;;;15.40;12.10;;;6.80;99.90;;;;;;5015022;28;20458;-56
2021/12/23 05:13:04;;;;;;;15.35;12.63;;;6.80;99.90;;;;;;5017385;28;20088;-57
2021/12/23 05:15:30;;;;;;;16.58;12.10;;;6.80;99.90;;;;;;5016723;28;20478;-56
2021/12/23 05:17:57;;;;;;;16.90;12.35;;;6.90;99.90;;;;;;5013024;28;20081;-56
2021/12/23 05:20:24;;;;;;;16.45;12.50;;;6.90;99.90;;;;;;5014031;28;20103;-58
2021/12/23 05:22:51;;;;;;;16.42;12.18;;;6.90;99.90;;;;;;5022777;28;20595;-56
2021/12/23 05:25:18;;;;;;;14.95;11.35;;;6.90;99.90;;;;;;5014565;28;20078;-55
2021/12/23 05:27:45;;;;;;;16.55;12.35;;;6.90;99.90;;;;;;5012008;28;20085;-56
2021/12/23 05:30:14;;;;;;;15.63;11.35;;;7.00;99.90;;;;;;5013719;28;20061;-56
2021/12/23 05:32:42;;;;;;;15.18;12.48;;;7.00;99.90;;;;;;5019101;28;20689;-52
2021/12/23 05:35:10;;;;;;;15.00;12.18;;;7.00;99.90;;;;;;5013218;28;20133;-55
2021/12/23 05:37:37;;;;;;;16.45;12.55;;;7.00;99.90;;;;;;5014274;28;20085;-56
2021/12/23 05:40:04;;;;;;;14.60;11.38;;;7.00;99.90;;;;;;5014393;28;20462;-55
2021/12/23 05:42:31;;;;;;;13.52;11.35;;;7.00;99.90;;;;;;5014923;28;20077;-55
2021/12/23 05:44:57;;;;;;;14.05;11.38;;;7.10;99.90;;;;;;5015387;28;20140;-55
2021/12/23 05:47:24;;;;;;;16.02;10.65;;;7.10;99.90;;;;;;5015018;28;20115;-55
2021/12/23 05:49:51;;;;;;;16.05;11.45;;;7.10;99.90;;;;;;5010615;28;20552;-56
2021/12/23 05:52:18;;;;;;;16.73;11.27;;;7.20;99.90;;;;;;5011530;28;20045;-56
2021/12/23 05:54:45;;;;;;;16.55;11.30;;;7.20;99.90;;;;;;5013071;28;20128;-56
2021/12/23 05:57:12;;;;;;;13.95;11.20;;;7.20;99.90;;;;;;5014031;28;20141;-57
2021/12/23 05:59:39;;;;;;;14.13;11.13;;;7.20;99.90;;;;;;5015487;28;20080;-56
2021/12/23 06:02:05;;;;;;;11.75;9.55;;;7.30;99.90;;;;;;5007308;28;20081;-56
2021/12/23 06:04:33;;;;;;;12.68;10.20;;;7.30;99.90;;;;;;5008846;28;20057;-56
2021/12/23 06:07:00;;;;;;;15.40;11.55;;;7.30;99.90;;;;;;5009051;28;20188;-56
2021/12/23 06:09:27;;;;;;;15.85;11.98;;;7.30;99.90;;;;;;5014523;28;20053;-57
2021/12/23 06:11:54;;;;;;;14.95;10.57;;;7.30;99.90;;;;;;5005780;28;20161;-56
2021/12/23 06:14:21;;;;;;;12.70;10.93;;;7.30;99.90;;;;;;5013181;28;20108;-56
2021/12/23 06:16:48;;;;;;;13.68;11.07;;;7.30;99.90;;;;;;5007411;28;20126;-56
2021/12/23 06:19:15;;;;;;;14.43;11.10;;;7.40;99.90;;;;;;5013085;28;20931;-54
2021/12/23 06:21:42;;;;;;;14.90;11.02;;;7.30;99.90;;;;;;5007549;28;20149;-55
2021/12/23 06:24:09;;;;;;;14.73;11.23;;;7.30;99.90;;;;;;5013371;28;20106;-56
2021/12/23 06:26:35;;;;;;;14.43;12.18;;;7.30;99.90;;;;;;5006666;28;20045;-54
2021/12/23 06:29:02;;;;;;;16.23;11.60;;;7.30;99.90;;;;;;5005366;28;20141;-56
2021/12/23 06:31:30;;;;;;;17.42;12.80;;;7.30;99.90;;;;;;5009545;28;20349;-57
2021/12/23 06:33:56;;;;;;;14.35;11.63;;;7.40;99.90;;;;;;5013869;28;20136;-56
2021/12/23 06:36:23;;;;;;;13.27;11.32;;;7.40;99.90;;;;;;5009728;28;20125;-56
2021/12/23 06:38:50;;;;;;;14.30;11.20;;;7.50;99.90;;;;;;5012132;28;20453;-55
2021/12/23 06:41:18;;;;;;;16.02;13.02;;;7.50;99.90;;;;;;5012712;28;20129;-56
2021/12/23 06:43:45;;;;;;;14.93;11.88;;;7.50;99.90;;;;;;5012649;28;20100;-55
2021/12/23 06:46:12;;;;;;;16.80;13.25;;;7.50;99.90;;;;;;5011121;28;20521;-56
2021/12/23 06:48:39;;;;;;;14.02;11.73;;;7.60;99.90;;;;;;5017946;28;20410;-55
2021/12/23 06:51:08;;;;;;;16.20;11.90;;;7.60;99.90;;;;;;5019551;28;20115;-56
2021/12/23 06:53:36;;;;;;;19.42;14.55;;;7.60;99.90;;;;;;5016880;28;20111;-56
2021/12/23 06:56:03;;;;;;;19.00;14.07;;;7.50;99.90;;;;;;5015904;28;20361;-54
2021/12/23 06:58:32;;;;;;;15.95;12.35;;;7.60;99.90;;;;;;5015574;28;20115;-54
2021/12/23 07:00:59;;;;;;;15.52;12.27;;;7.60;99.90;;;;;;5019587;28;20141;-58
2021/12/23 07:03:35;;;;;;;15.18;11.57;;;7.60;99.90;;;;;;5017445;28;20124;-55
2021/12/23 07:06:06;;;;;;;16.45;12.65;;;7.70;99.90;;;;;;5015538;28;20046;-56
2021/12/23 07:08:36;;;;;;;14.98;13.25;;;7.70;99.90;;;;;;5017513;28;20081;-54
2021/12/23 07:11:04;;;;;;;17.35;13.43;;;7.70;99.90;;;;;;5018609;28;20053;-55
2021/12/23 07:13:32;;;;;;;16.38;12.85;;;7.70;99.90;;;;;;5018465;28;20059;-54
2021/12/23 07:16:01;;;;;;;16.15;12.00;;;7.70;99.90;;;;;;5019015;28;20057;-55
2021/12/23 07:18:28;;;;;;;15.75;12.68;;;7.70;99.90;;;;;;5018062;28;20455;-56
2021/12/23 07:20:54;;;;;;;14.95;12.77;;;7.70;99.90;;;;;;5019290;28;20096;-56
2021/12/23 07:23:21;;;;;;;15.43;12.15;;;7.70;99.90;;;;;;5020891;28;20120;-56
2021/12/23 07:25:48;;;;;;;14.13;11.68;;;7.70;99.90;;;;;;5014036;28;20056;-56
2021/12/23 07:28:14;;;;;;;14.38;12.30;;;7.70;99.90;;;;;;5010288;28;20085;-56
2021/12/23 07:30:41;;;;;;;16.35;12.77;;;7.70;99.90;;;;;;5013804;28;20052;-55
2021/12/23 07:33:08;;;;;;;16.70;13.18;;;7.70;99.90;;;;;;5013907;28;20061;-55
2021/12/23 07:35:35;;;;;;;15.30;12.40;;;7.70;99.90;;;;;;5010391;28;20148;-56
2021/12/23 07:38:02;;;;;;;13.25;11.50;;;7.80;99.90;;;;;;5013053;28;20140;-57
2021/12/23 07:40:30;;;;;;;15.95;12.40;;;7.80;99.90;;;;;;5008659;28;20049;-56
2021/12/23 07:43:08;;;;;;;17.45;13.75;;;7.80;99.90;;;;;;5007821;28;20108;-57
2021/12/23 07:45:35;;;;;;;15.48;12.77;;;7.80;99.90;;;;;;5008235;28;20128;-54
2021/12/23 07:48:02;;;;;;;14.63;11.55;;;7.90;99.90;;;;;;5010335;28;20072;-56
2021/12/23 07:50:30;;;;;;;15.45;12.50;;;7.90;99.90;;;;;;5012947;28;20148;-57
2021/12/23 07:52:57;;;;;;;16.40;12.60;;;7.90;99.90;;;;;;5008987;28;20147;-56
2021/12/23 07:55:24;;;;;;;20.55;15.63;;;7.90;99.90;;;;;;5007407;28;20077;-56
2021/12/23 07:57:50;;;;;;;18.90;15.45;;;7.90;99.90;;;;;;5008132;28;20715;-56
2021/12/23 08:00:18;;;;;;;19.08;15.30;;;7.90;99.90;;;;;;5009015;28;20088;-56
2021/12/23 08:02:44;;;;;;;19.20;15.68;;;7.90;99.90;;;;;;5008847;28;20111;-56
2021/12/23 08:05:12;;;;;;;16.48;13.95;;;8.00;99.90;;;;;;5011703;28;20053;-55
2021/12/23 08:07:39;;;;;;;15.93;14.10;;;8.00;99.90;;;;;;5009545;28;20132;-55
2021/12/23 08:10:06;;;;;;;18.92;14.20;;;8.00;99.90;;;;;;5012118;28;20085;-55
2021/12/23 08:12:33;;;;;;;16.15;13.02;;;8.00;99.90;;;;;;5006733;28;20045;-58
2021/12/23 08:15:00;;;;;;;19.58;13.13;;;8.00;99.90;;;;;;5008885;28;20143;-59
2021/12/23 08:17:35;;;;;;;15.30;12.02;;;8.10;99.90;;;;;;5006774;28;20135;-55
2021/12/23 08:20:06;;;;;;;13.50;11.32;;;8.10;99.90;;;;;;5009456;28;20412;-57
2021/12/23 08:22:33;;;;;;;14.02;11.55;;;8.10;99.90;;;;;;5011972;28;20127;-56
2021/12/23 08:25:00;;;;;;;12.25;10.32;;;8.20;99.90;;;;;;5008760;28;20151;-57
2021/12/23 08:27:29;;;;;;;12.60;10.15;;;8.20;99.90;;;;;;5007723;28;20053;-57
2021/12/23 08:29:56;;;;;;;11.45;9.05;;;8.30;99.90;;;;;;5011197;28;20668;-55
2021/12/23 08:32:23;;;;;;;10.85;9.13;;;8.30;99.90;;;;;;5011985;28;20061;-56
2021/12/23 08:34:50;;;;;;;12.90;9.90;;;8.40;99.90;;;;;;5010976;28;20092;-57
2021/12/23 08:37:16;;;;;;;13.70;11.15;;;8.40;99.90;;;;;;5009315;28;20128;-56
2021/12/23 08:39:43;;;;;;;10.27;9.07;;;8.40;99.90;;;;;;5009888;28;20068;-57
2021/12/23 08:42:10;;;;;;;12.45;10.50;;;8.40;99.90;;;;;;5005017;28;20134;-56
2021/12/23 08:44:40;;;;;;;10.55;9.32;;;8.40;99.90;;;;;;5010895;28;20081;-57
2021/12/23 08:47:07;;;;;;;9.93;8.45;;;8.40;99.90;;;;;;5008104;28;20049;-57
2021/12/23 08:49:34;;;;;;;10.65;8.63;;;8.50;99.90;;;;;;5010602;28;20189;-55
2021/12/23 08:52:01;;;;;;;11.32;9.38;;;8.50;99.90;;;;;;5007984;28;20136;-57
2021/12/23 08:54:28;;;;;;;10.93;8.57;;;8.50;99.90;;;;;;5013188;28;20050;-55
2021/12/23 08:56:55;;;;;;;10.95;9.45;;;8.50;99.90;;;;;;5009756;28;20493;-57
2021/12/23 08:59:21;;;;;;;11.43;9.18;;;8.50;99.90;;;;;;5013343;28;20151;-56
2021/12/23 09:01:48;;;;;;;14.95;12.13;;;8.60;99.90;;;;;;5013935;28;20136;-57
2021/12/23 09:04:15;;;;;;;15.73;12.38;;;8.60;99.90;;;;;;5013751;28;20053;-55
2021/12/23 09:06:42;;;;;;;14.50;11.80;;;8.50;99.90;;;;;;5010834;28;20860;-56
2021/12/23 09:09:09;;;;;;;14.38;11.38;;;8.60;99.90;;;;;;5013962;28;20160;-56
2021/12/23 09:11:37;;;;;;;13.82;12.15;;;8.50;99.90;;;;;;5010162;28;20528;-53
2021/12/23 09:14:04;;;;;;;15.82;12.57;;;8.50;99.90;;;;;;5016864;28;20112;-56
2021/12/23 09:16:31;;;;;;;14.45;11.20;;;8.50;99.90;;;;;;5011744;28;20076;-57
2021/12/23 09:18:58;;;;;;;13.52;10.57;;;8.60;99.90;;;;;;5010642;28;20515;-56
2021/12/23 09:21:24;;;;;;;12.07;10.32;;;8.60;99.90;;;;;;5016570;28;20602;-57
2021/12/23 09:23:59;;;;;;;12.27;9.52;;;8.60;99.90;;;;;;5013048;28;20518;-56
2021/12/23 09:26:27;;;;;;;10.15;9.13;;;8.70;99.90;;;;;;5009101;28;20099;-56
2021/12/23 09:29:13;;;;;;;11.18;9.18;;;8.70;99.90;;;;;;5009952;28;20084;-54
2021/12/23 09:34:25;;;;;;;10.43;8.13;;;8.90;99.90;;;;;;5014807;28;20925;-53
2021/12/23 09:36:52;;;;;;;9.85;8.55;;;9.00;99.90;;;;;;5012140;28;20449;-54
2021/12/23 09:39:19;;;;;;;8.73;7.38;;;9.00;99.90;;;;;;5011774;28;20052;-54
2021/12/23 09:41:46;;;;;;;8.90;8.00;;;9.00;99.90;;;;;;5009818;28;20081;-54
2021/12/23 09:44:14;;;;;;;10.27;8.23;;;9.00;99.90;;;;;;5011335;28;20121;-54
2021/12/23 09:46:41;;;;;;;10.13;7.85;;;9.00;99.90;;;;;;5007639;28;20168;-55
2021/12/23 09:49:08;;;;;;;10.32;8.18;;;9.10;99.90;;;;;;5010253;28;20045;-55
2021/12/23 09:51:36;;;;;;;9.88;8.07;;;9.20;99.90;;;;;;5011122;28;20118;-54
2021/12/23 09:54:05;;;;;;;9.07;7.95;;;9.20;99.90;;;;;;5009146;28;20112;-57
2021/12/23 09:56:32;;;;;;;11.43;8.48;;;9.20;99.90;;;;;;5006388;28;20049;-53
2021/12/23 09:58:59;;;;;;;12.48;9.93;;;9.20;99.90;;;;;;5006536;28;20096;-57
2021/12/23 10:01:27;;;;;;;9.13;8.23;;;9.20;99.90;;;;;;5010024;28;20173;-56
2021/12/23 10:03:54;;;;;;;10.45;9.20;;;9.10;99.90;;;;;;5012296;28;20057;-57
2021/12/23 10:06:24;;;;;;;12.65;9.65;;;9.10;99.90;;;;;;4993016;28;20085;-57
2021/12/23 10:08:51;;;;;;;10.85;8.70;;;9.10;99.90;;;;;;5011581;28;20112;-57
2021/12/23 10:11:30;;;;;;;10.38;9.23;;;9.10;99.90;;;;;;5013784;28;20124;-57
2021/12/23 10:31:34;;;;;;;10.15;8.20;;;9.40;99.90;;;;;;5017124;28;20095;-54
2021/12/23 10:37:23;;;;;;;10.90;8.70;;;9.60;99.90;;;;;;5003590;28;20088;-51
2021/12/23 10:40:04;;;;;;;8.95;7.40;;;9.70;99.90;;;;;;5017809;28;20085;-53
2021/12/23 10:42:32;;;;;;;9.45;7.95;;;9.80;99.90;;;;;;5018423;28;20052;-55
2021/12/23 10:45:12;;;;;;;10.38;8.13;;;9.80;99.90;;;;;;5016780;28;20049;-54
2021/12/23 10:48:03;;;;;;;12.02;8.45;;;9.80;99.90;;;;;;5017004;28;20115;-56
2021/12/23 10:50:40;;;;;;;8.57;7.63;;;9.80;99.90;;;;;;5015924;28;20106;-51
2021/12/23 10:53:12;;;;;;;10.45;8.05;;;9.90;99.90;;;;;;5019030;28;20049;-51
2021/12/23 10:58:24;;;;;;;8.68;7.35;;;9.90;99.90;;;;;;5014256;28;20160;-54
2021/12/23 11:00:53;;;;;;;10.50;8.65;;;9.90;99.90;;;;;;5017131;28;20077;-54
2021/12/23 11:03:38;;;;;;;9.82;8.40;;;9.90;99.90;;;;;;5013310;28;20076;-56
2021/12/23 11:06:25;;;;;;;9.32;7.97;;;9.90;99.90;;;;;;5014697;28;20651;-54
2021/12/23 11:43:59;;;;;;;10.98;9.05;;;9.80;99.90;;;;;;5011031;28;20522;-55
2021/12/23 11:46:41;;;;;;;10.45;8.98;;;9.80;99.90;;;;;;5009012;28;20099;-56
2021/12/23 11:49:10;;;;;;;10.55;8.77;;;9.80;99.90;;;;;;5011690;28;20049;-56
2021/12/23 11:51:46;;;;;;;9.45;8.07;;;9.90;99.90;;;;;;5009316;28;20067;-57
2021/12/23 11:54:14;;;;;;;10.40;7.93;;;10.10;99.90;;;;;;5008764;28;20693;-56
2021/12/23 11:56:51;;;;;;;11.27;8.88;;;10.20;99.90;;;;;;5009644;28;20145;-55
2021/12/23 11:59:18;;;;;;;11.32;9.30;;;10.30;99.90;;;;;;5007876;28;20080;-56
2021/12/23 12:01:52;;;;;;;13.00;10.20;;;10.30;99.90;;;;;;5013220;28;20798;-57
2021/12/23 12:04:27;;;;;;;12.90;10.75;;;10.40;99.90;;;;;;5010474;28;20045;-52
2021/12/23 12:06:54;;;;;;;12.52;10.38;;;10.50;99.90;;;;;;5006131;28;20081;-56
2021/12/23 12:09:26;;;;;;;11.45;9.48;;;10.60;99.90;;;;;;5003398;28;20125;-55
2021/12/23 12:11:59;;;;;;;12.02;9.85;;;10.60;99.90;;;;;;5007477;28;20809;-56
2021/12/23 12:14:40;;;;;;;13.40;11.00;;;10.60;99.90;;;;;;5010334;28;20128;-57
2021/12/23 12:17:25;;;;;;;12.38;9.30;;;10.60;99.90;;;;;;5010780;28;20334;-56
2021/12/23 12:19:56;;;;;;;9.10;7.93;;;10.70;99.90;;;;;;5010998;28;20058;-55
2021/12/23 12:22:45;;;;;;;9.82;8.63;;;10.80;99.90;;;;;;5013359;28;20052;-56
2021/12/23 12:25:24;;;;;;;10.90;8.75;;;10.80;99.90;;;;;;5010330;28;20138;-56
2021/12/23 12:27:57;;;;;;;11.48;10.05;;;10.80;99.90;;;;;;5009191;28;20140;-54
2021/12/23 12:30:36;;;;;;;12.02;10.23;;;10.70;99.90;;;;;;5016356;28;20649;-56
2021/12/23 12:33:11;;;;;;;12.25;9.90;;;10.70;99.90;;;;;;5014359;28;20608;-57
2021/12/23 12:35:39;;;;;;;11.15;9.38;;;10.80;99.90;;;;;;5012519;28;20152;-58
2021/12/23 12:38:17;;;;;;;10.90;9.00;;;10.90;99.90;;;;;;5013955;28;20500;-56
2021/12/23 12:41:16;;;;;;;10.40;8.15;;;10.90;99.90;;;;;;5012767;28;20132;-57
2021/12/23 12:43:46;;;;;;;12.35;10.35;;;11.00;99.90;;;;;;5014174;28;20131;-56
2021/12/23 12:47:36;;;;;;;12.52;9.30;;;10.90;99.90;;;;;;5015982;28;20037;-56
2021/12/23 12:49:43;;;;;;;10.48;8.70;;;10.90;99.90;;;;;;5010265;28;20045;-56
2021/12/23 12:52:17;;;;;;;11.45;9.05;;;11.00;99.90;;;;;;5011980;28;20085;-57
2021/12/23 12:54:47;;;;;;;;;;;11.00;99.90;;;;;;5012954;28;20168;-58
2021/12/23 12:57:13;;;;;;;10.45;7.75;;;11.00;99.90;;;;;;5013553;28;20008;-57
2021/12/23 12:59:42;;;;;;;9.25;8.27;;;11.00;99.90;;;;;;5010777;28;20172;-57
2021/12/23 13:02:19;;;;;;;9.98;6.95;;;11.10;99.90;;;;;;5014832;28;20137;-56
2021/12/23 13:05:02;;;;;;;9.75;7.78;;;11.10;99.90;;;;;;5012399;28;20154;-54
2021/12/23 13:07:36;;;;;;;8.43;7.18;;;11.10;99.90;;;;;;5009942;28;20152;-56
2021/12/23 13:10:16;;;;;;;9.52;7.22;;;11.20;99.90;;;;;;5008388;28;20140;-57
2021/12/23 13:12:51;;;;;;;10.90;7.20;;;11.20;99.90;;;;;;5011915;28;20045;-58
2021/12/23 13:15:22;;;;;;;7.70;6.32;;;11.20;99.90;;;;;;5013900;28;20136;-56
2021/12/23 13:17:53;;;;;;;8.35;6.15;;;11.10;99.90;;;;;;5013229;28;20725;-56
2021/12/23 13:20:42;;;;;;;8.35;6.95;;;11.10;99.90;;;;;;5009618;28;20573;-57
2021/12/23 13:23:12;;;;;;;7.35;5.95;;;11.10;99.90;;;;;;5008840;28;20081;-56
2021/12/23 13:25:53;;;;;;;7.43;5.75;;;11.10;99.90;;;;;;5010680;28;20472;-57
2021/12/23 13:28:21;;;;;;;7.15;5.03;;;11.10;99.90;;;;;;5022710;28;20137;-57
2021/12/23 13:30:48;;;;;;;7.15;6.03;;;11.10;99.90;;;;;;5015674;28;20060;-57
2021/12/23 13:33:15;;;;;;;5.68;4.93;;;11.10;99.90;;;;;;5011420;28;20056;-58
2021/12/23 13:35:42;;;;;;;7.32;6.45;;;11.10;99.90;;;;;;5014991;28;20215;-57
2021/12/23 13:38:10;;;;;;;6.95;6.05;;;11.00;99.90;;;;;;5008775;28;20092;-56
2021/12/23 13:40:38;;;;;;;7.68;6.25;;;11.00;99.90;;;;;;5010745;28;20089;-57
2021/12/23 13:43:05;;;;;;;7.68;6.28;;;11.00;99.90;;;;;;5015248;28;20806;-58
2021/12/23 13:45:32;;;;;;;7.40;5.88;;;11.00;99.90;;;;;;5014938;28;20049;-55
2021/12/23 13:47:59;;;;;;;6.70;5.53;;;11.00;99.90;;;;;;5015144;28;20133;-57
2021/12/23 13:50:27;;;;;;;6.97;5.38;;;11.00;99.90;;;;;;5008125;28;20505;-57
2021/12/23 13:52:54;;;;;;;5.90;4.57;;;11.00;99.90;;;;;;5007415;28;20601;-56
2021/12/23 13:55:23;;;;;;;6.57;5.35;;;11.00;99.90;;;;;;5009875;28;20117;-56
2021/12/23 13:57:52;;;;;;;6.15;5.10;;;11.00;99.90;;;;;;5013383;28;20704;-57
2021/12/23 14:00:26;;;;;;;6.47;4.55;;;11.00;99.90;;;;;;5007104;28;20092;-56
2021/12/23 14:03:03;;;;;;;5.45;4.00;;;10.90;99.90;;;;;;5016990;28;20096;-56